Time;durP1;ratioP1;P1;durP2;ratioP2;P2;SDS_P1;SDS_P2;PMS_P1;PMS_P2;Temp;Humidity;BMP_temperature;BMP_pressure;BME280_temperature;BME280_humidity;BME280_pressure;Samples;Min_cycle;Max_cycle;Signal;HPM_P1;HPM_P2
2023/09/10 00:01:04;;;;;;;11.98;8.80;;;23.30;84.50;;;;;;4956734;28;20019;-83
2023/09/10 00:03:32;;;;;;;12.48;8.57;;;23.40;84.90;;;;;;4956355;28;20042;-82
2023/09/10 00:05:59;;;;;;;10.27;8.68;;;23.30;85.10;;;;;;4956916;28;20581;-82
2023/09/10 00:08:25;;;;;;;10.93;8.60;;;23.20;85.30;;;;;;4974136;28;20416;-82
2023/09/10 00:10:51;;;;;;;9.95;8.57;;;23.20;85.50;;;;;;4973583;28;20030;-82
2023/09/10 00:13:17;;;;;;;9.95;8.80;;;23.20;85.70;;;;;;4956528;28;20080;-82
2023/09/10 00:15:43;;;;;;;10.30;8.23;;;23.20;85.90;;;;;;4956350;28;20035;-82
2023/09/10 00:18:08;;;;;;;8.95;7.60;;;23.10;86.10;;;;;;4974482;28;20039;-82
2023/09/10 00:20:34;;;;;;;9.93;8.25;;;23.10;86.10;;;;;;4973934;28;20026;-83
2023/09/10 00:22:59;;;;;;;9.63;8.05;;;23.10;86.20;;;;;;4973860;28;20053;-82
2023/09/10 00:25:25;;;;;;;11.15;9.00;;;23.10;86.30;;;;;;4973930;28;20211;-82
2023/09/10 00:27:51;;;;;;;9.60;7.93;;;23.10;86.40;;;;;;4955923;28;20026;-82
2023/09/10 00:30:16;;;;;;;11.85;10.10;;;23.00;86.40;;;;;;4955958;28;20059;-82
2023/09/10 00:32:42;;;;;;;10.23;8.75;;;23.00;86.40;;;;;;4956190;28;20027;-82
2023/09/10 00:35:08;;;;;;;11.35;9.15;;;23.00;86.50;;;;;;4973984;28;20039;-82
2023/09/10 00:37:34;;;;;;;14.07;9.90;;;23.00;86.50;;;;;;4956584;28;20049;-82
2023/09/10 00:39:59;;;;;;;14.63;9.43;;;23.00;87.10;;;;;;4973682;28;20031;-82
2023/09/10 00:42:25;;;;;;;11.15;9.75;;;22.90;86.30;;;;;;4956237;28;20473;-82
2023/09/10 00:44:51;;;;;;;12.40;9.65;;;23.00;86.30;;;;;;4956191;28;20038;-81
2023/09/10 00:47:16;;;;;;;10.98;9.73;;;22.90;86.20;;;;;;4956399;28;20030;-81
2023/09/10 00:49:44;;;;;;;11.98;10.43;;;22.90;86.10;;;;;;4973678;28;20043;-81
2023/09/10 00:52:10;;;;;;;13.00;10.07;;;22.90;86.10;;;;;;4974041;28;20038;-81
2023/09/10 00:54:37;;;;;;;13.80;10.90;;;22.90;86.00;;;;;;4973623;28;20030;-82
2023/09/10 00:57:03;;;;;;;13.23;10.80;;;22.90;86.00;;;;;;4956247;28;20022;-81
2023/09/10 00:59:30;;;;;;;13.45;10.43;;;22.90;86.00;;;;;;4973393;28;20107;-81
2023/09/10 01:01:58;;;;;;;11.25;10.00;;;22.80;86.00;;;;;;4973094;28;20062;-81
2023/09/10 01:04:23;;;;;;;12.98;10.68;;;22.80;86.00;;;;;;4955838;28;20046;-81
2023/09/10 01:06:51;;;;;;;12.35;11.00;;;22.80;86.00;;;;;;4973453;28;20027;-81
2023/09/10 01:09:17;;;;;;;11.95;10.30;;;22.80;86.00;;;;;;4975438;28;20093;-81
2023/09/10 01:11:48;;;;;;;11.65;10.15;;;22.80;86.00;;;;;;4977272;28;20026;-81
2023/09/10 01:14:25;;;;;;;11.48;9.68;;;22.80;86.00;;;;;;4977117;28;20030;-81
2023/09/10 01:17:13;;;;;;;11.57;10.38;;;22.80;86.00;;;;;;4976931;28;20382;-82
2023/09/10 01:19:50;;;;;;;10.95;9.32;;;22.70;86.00;;;;;;4977016;28;20489;-81
2023/09/10 01:22:25;;;;;;;10.45;9.32;;;22.70;86.00;;;;;;4977206;28;20041;-81
2023/09/10 01:24:51;;;;;;;12.48;10.13;;;22.70;86.10;;;;;;4976927;28;20468;-81
2023/09/10 01:27:18;;;;;;;11.02;9.23;;;22.70;86.10;;;;;;4976640;28;20511;-82
2023/09/10 01:29:44;;;;;;;10.45;9.15;;;22.70;86.10;;;;;;4976370;28;20396;-82
2023/09/10 01:32:55;;;;;;;12.02;9.93;;;22.70;86.10;;;;;;4976684;28;20026;-81
2023/09/10 01:35:33;;;;;;;11.52;9.55;;;22.70;86.20;;;;;;4974111;28;20043;-82
2023/09/10 01:38:21;;;;;;;13.10;9.98;;;22.70;86.10;;;;;;4976631;28;20056;-82
2023/09/10 01:40:56;;;;;;;11.15;9.75;;;22.60;86.10;;;;;;4976809;28;20488;-82
2023/09/10 01:43:22;;;;;;;12.40;10.73;;;22.60;86.10;;;;;;4959165;28;20110;-82
2023/09/10 01:45:49;;;;;;;11.85;10.25;;;22.60;86.20;;;;;;4976526;28;20154;-81
2023/09/10 01:48:15;;;;;;;10.88;9.55;;;22.50;86.30;;;;;;4958981;28;20054;-81
2023/09/10 01:50:41;;;;;;;13.48;11.30;;;22.50;86.40;;;;;;4976658;28;20090;-81
2023/09/10 01:53:06;;;;;;;12.77;10.63;;;22.50;86.40;;;;;;4976301;28;20041;-82
2023/09/10 01:55:32;;;;;;;14.38;11.55;;;22.50;86.50;;;;;;4976531;28;20106;-82
2023/09/10 01:57:58;;;;;;;12.32;10.10;;;22.50;86.60;;;;;;4958961;28;20072;-81
2023/09/10 02:00:24;;;;;;;12.73;10.43;;;22.40;86.60;;;;;;4976217;28;20034;-81
2023/09/10 02:02:50;;;;;;;12.65;10.82;;;22.50;86.70;;;;;;4958718;28;20019;-81
2023/09/10 02:05:15;;;;;;;13.27;11.10;;;22.50;86.90;;;;;;4975804;28;20472;-81
2023/09/10 02:07:41;;;;;;;13.77;10.95;;;22.50;86.90;;;;;;4976298;28;20436;-81
2023/09/10 02:10:07;;;;;;;12.20;10.38;;;22.50;86.90;;;;;;4975785;28;20089;-81
2023/09/10 02:12:36;;;;;;;12.88;10.65;;;22.50;87.00;;;;;;4958439;28;20027;-82
2023/09/10 02:15:03;;;;;;;13.98;11.25;;;22.50;87.10;;;;;;4976029;28;20031;-82
2023/09/10 02:17:29;;;;;;;13.90;11.10;;;22.40;87.10;;;;;;4974672;28;20077;-82
2023/09/10 02:19:54;;;;;;;12.48;11.05;;;22.40;87.20;;;;;;4975178;28;20038;-81
2023/09/10 02:22:20;;;;;;;11.75;10.25;;;22.40;87.20;;;;;;4975393;28;20477;-80
2023/09/10 02:24:50;;;;;;;12.40;10.82;;;22.40;87.30;;;;;;4976030;28;20049;-82
2023/09/10 02:27:16;;;;;;;12.05;10.75;;;22.40;87.30;;;;;;4958355;28;20037;-81
2023/09/10 02:29:41;;;;;;;12.95;11.55;;;22.40;87.30;;;;;;4958246;28;20496;-82
2023/09/10 02:32:07;;;;;;;15.27;11.25;;;22.40;87.40;;;;;;4975879;28;20128;-82
2023/09/10 02:34:33;;;;;;;12.80;10.88;;;22.30;87.40;;;;;;4975704;28;20038;-82
2023/09/10 02:36:59;;;;;;;12.27;10.80;;;22.30;87.40;;;;;;4975794;28;20563;-82
2023/09/10 02:39:25;;;;;;;14.43;11.00;;;22.40;87.60;;;;;;4975807;28;20121;-81
2023/09/10 02:41:51;;;;;;;13.48;11.85;;;22.30;87.60;;;;;;4975515;28;20066;-82
2023/09/10 02:44:16;;;;;;;15.98;11.57;;;22.30;87.60;;;;;;4975344;28;20035;-82
2023/09/10 02:46:42;;;;;;;14.30;11.57;;;22.20;87.60;;;;;;4975993;28;20026;-81
2023/09/10 02:49:07;;;;;;;14.52;11.15;;;22.30;87.70;;;;;;4974429;28;20042;-81
2023/09/10 02:51:33;;;;;;;14.43;11.82;;;22.40;87.70;;;;;;4975698;28;20102;-81
2023/09/10 02:53:58;;;;;;;14.18;11.63;;;22.30;87.70;;;;;;4958024;28;20023;-81
2023/09/10 02:56:24;;;;;;;13.20;11.35;;;22.30;87.70;;;;;;4959284;28;20061;-82
2023/09/10 02:58:49;;;;;;;13.85;10.50;;;22.30;87.80;;;;;;4977773;28;20035;-82
2023/09/10 03:01:15;;;;;;;13.20;11.43;;;22.20;87.80;;;;;;4979198;28;20031;-80
2023/09/10 03:03:40;;;;;;;13.57;11.23;;;22.30;87.90;;;;;;4978816;28;20031;-81
2023/09/10 03:06:12;;;;;;;13.32;11.82;;;22.30;87.90;;;;;;4961489;28;20047;-81
2023/09/10 03:08:38;;;;;;;13.05;10.07;;;22.20;88.00;;;;;;4977498;28;20493;-81
2023/09/10 03:11:04;;;;;;;12.85;11.02;;;22.20;88.00;;;;;;4977604;28;20086;-80
2023/09/10 03:13:30;;;;;;;13.15;11.63;;;22.20;88.10;;;;;;4977164;28;20029;-81
2023/09/10 03:15:55;;;;;;;14.85;11.80;;;22.30;88.20;;;;;;4977454;28;20482;-81
2023/09/10 03:18:21;;;;;;;13.95;12.38;;;22.20;88.20;;;;;;4976631;28;20126;-82
2023/09/10 03:20:46;;;;;;;14.88;12.57;;;22.20;88.30;;;;;;4976661;28;20034;-82
2023/09/10 03:23:12;;;;;;;15.10;11.60;;;22.20;88.30;;;;;;4977947;28;20067;-82
2023/09/10 03:25:39;;;;;;;14.30;11.75;;;22.20;88.30;;;;;;4977644;28;20386;-82
2023/09/10 03:28:06;;;;;;;14.70;12.25;;;22.20;88.40;;;;;;4959979;28;20398;-82
2023/09/10 03:30:31;;;;;;;14.15;12.63;;;22.20;88.50;;;;;;4959102;28;20439;-82
2023/09/10 03:32:57;;;;;;;15.13;13.52;;;22.10;88.50;;;;;;4975259;28;20121;-82
2023/09/10 03:35:23;;;;;;;13.93;12.43;;;22.10;88.60;;;;;;4959588;28;20109;-82
2023/09/10 03:37:48;;;;;;;15.38;12.55;;;22.20;88.70;;;;;;4974253;28;20484;-82
2023/09/10 03:40:14;;;;;;;14.55;12.35;;;22.10;88.70;;;;;;4974225;28;20030;-83
2023/09/10 03:42:40;;;;;;;14.70;12.75;;;22.10;88.80;;;;;;4957018;28;20074;-82
2023/09/10 03:45:06;;;;;;;14.55;12.20;;;22.10;88.80;;;;;;4973991;28;20030;-82
2023/09/10 03:47:33;;;;;;;15.35;13.05;;;22.10;88.90;;;;;;4956629;28;20046;-82
2023/09/10 03:50:00;;;;;;;15.18;13.57;;;22.10;88.90;;;;;;4973864;28;20058;-82
2023/09/10 03:52:25;;;;;;;15.75;13.80;;;22.00;88.90;;;;;;4974307;28;20030;-82
2023/09/10 03:54:51;;;;;;;14.55;12.13;;;22.00;88.90;;;;;;4973941;28;20508;-82
2023/09/10 03:57:16;;;;;;;14.52;12.52;;;22.00;89.00;;;;;;4956361;28;20114;-82
2023/09/10 03:59:42;;;;;;;18.30;12.18;;;22.00;89.00;;;;;;4973881;28;20058;-82
2023/09/10 04:02:08;;;;;;;14.07;12.43;;;22.00;89.00;;;;;;4973683;28;20031;-82
2023/09/10 04:04:33;;;;;;;14.52;13.05;;;22.00;89.10;;;;;;4988490;28;20027;-81
2023/09/10 04:06:59;;;;;;;15.30;12.98;;;22.00;89.20;;;;;;4973850;28;20113;-83
2023/09/10 04:09:25;;;;;;;14.65;12.98;;;22.00;89.20;;;;;;4973422;28;20484;-82
2023/09/10 04:11:51;;;;;;;14.70;12.82;;;22.00;89.30;;;;;;4973847;28;20121;-82
2023/09/10 04:14:16;;;;;;;15.30;13.48;;;22.00;89.40;;;;;;4973513;28;20457;-82
2023/09/10 04:16:42;;;;;;;16.48;14.73;;;22.00;89.50;;;;;;4973809;28;20053;-82
2023/09/10 04:19:07;;;;;;;14.45;12.85;;;22.00;89.50;;;;;;4956239;28;20035;-82
2023/09/10 04:21:34;;;;;;;17.35;13.60;;;21.90;89.50;;;;;;4956180;28;20023;-82
2023/09/10 04:23:59;;;;;;;14.57;13.07;;;22.00;89.70;;;;;;4973439;28;20054;-82
2023/09/10 04:26:25;;;;;;;17.33;13.35;;;21.90;89.70;;;;;;4973774;28;20035;-82
2023/09/10 04:28:51;;;;;;;17.42;15.05;;;21.90;89.80;;;;;;4973478;28;20038;-82
2023/09/10 04:31:17;;;;;;;15.25;13.63;;;21.90;89.90;;;;;;4973268;28;20034;-82
2023/09/10 04:33:43;;;;;;;16.00;14.30;;;21.90;89.90;;;;;;4955864;28;20088;-82
2023/09/10 04:36:10;;;;;;;17.73;14.35;;;21.90;90.00;;;;;;4956275;28;20033;-82
2023/09/10 04:38:35;;;;;;;18.05;15.18;;;21.90;90.00;;;;;;4956174;28;20042;-82
2023/09/10 04:41:01;;;;;;;15.32;13.70;;;21.80;90.00;;;;;;4973512;28;20023;-82
2023/09/10 04:43:27;;;;;;;17.73;14.82;;;21.80;90.00;;;;;;4974595;28;20078;-82
2023/09/10 04:45:52;;;;;;;16.55;14.77;;;21.80;90.10;;;;;;4980295;28;20080;-82
2023/09/10 04:48:18;;;;;;;14.50;13.02;;;21.80;90.10;;;;;;4992065;28;20038;-81
2023/09/10 04:50:44;;;;;;;16.05;13.93;;;21.80;90.10;;;;;;4991984;28;20050;-82
2023/09/10 04:53:10;;;;;;;16.88;15.00;;;21.80;90.10;;;;;;4975135;28;20026;-82
2023/09/10 04:55:36;;;;;;;16.02;14.43;;;21.80;90.10;;;;;;4975082;28;20022;-82
2023/09/10 04:58:02;;;;;;;16.20;14.05;;;21.80;90.20;;;;;;4974856;28;20045;-82
2023/09/10 05:00:28;;;;;;;19.48;14.35;;;21.80;90.20;;;;;;4993246;28;20118;-82
2023/09/10 05:02:53;;;;;;;17.20;15.27;;;21.80;90.20;;;;;;4974953;28;20090;-82
2023/09/10 05:05:19;;;;;;;16.80;14.10;;;21.80;90.20;;;;;;4975262;28;20121;-82
2023/09/10 05:07:50;;;;;;;16.80;14.10;;;21.80;90.20;;;;;;4992707;28;20401;-82
2023/09/10 05:10:16;;;;;;;16.77;14.35;;;21.70;90.20;;;;;;4974860;28;20093;-82
2023/09/10 05:12:42;;;;;;;15.55;13.55;;;21.70;90.30;;;;;;4992905;28;20420;-82
2023/09/10 05:15:10;;;;;;;17.23;13.55;;;21.70;90.30;;;;;;4975258;28;20039;-82
2023/09/10 05:17:36;;;;;;;15.63;13.63;;;21.80;90.30;;;;;;4974926;28;20411;-82
2023/09/10 05:20:02;;;;;;;15.18;13.38;;;21.70;90.30;;;;;;4975175;28;20034;-82
2023/09/10 05:22:29;;;;;;;17.38;13.30;;;21.70;90.30;;;;;;4974804;28;20027;-82
2023/09/10 05:24:54;;;;;;;16.13;14.32;;;21.70;90.40;;;;;;4974912;28;20023;-82
2023/09/10 05:27:20;;;;;;;15.73;14.00;;;21.70;90.40;;;;;;4992359;28;20395;-81
2023/09/10 05:29:45;;;;;;;17.17;14.55;;;21.70;90.40;;;;;;4992350;28;20112;-82
2023/09/10 05:32:11;;;;;;;19.92;16.15;;;21.70;90.40;;;;;;4992334;28;20042;-82
2023/09/10 05:34:37;;;;;;;17.50;15.70;;;21.70;90.70;;;;;;4992415;28;20547;-82
2023/09/10 05:37:03;;;;;;;19.23;16.13;;;21.70;90.50;;;;;;4992147;28;20026;-82
2023/09/10 05:39:29;;;;;;;18.05;15.88;;;21.80;90.50;;;;;;4992657;28;20030;-82
2023/09/10 05:41:54;;;;;;;17.05;15.25;;;21.80;90.60;;;;;;4992432;28;20034;-82
2023/09/10 05:44:20;;;;;;;19.90;16.73;;;21.80;90.60;;;;;;4992248;28;20026;-82
2023/09/10 05:46:46;;;;;;;17.70;15.80;;;21.80;90.60;;;;;;4974839;28;20035;-82
2023/09/10 05:49:12;;;;;;;19.75;15.73;;;21.70;90.60;;;;;;4992311;28;20069;-82
2023/09/10 05:51:38;;;;;;;17.30;15.50;;;21.80;90.60;;;;;;4992070;28;20496;-82
2023/09/10 05:54:03;;;;;;;19.88;16.63;;;21.70;90.60;;;;;;4991227;28;20026;-82
2023/09/10 05:56:29;;;;;;;18.98;15.25;;;21.70;90.60;;;;;;4995849;28;20349;-82
2023/09/10 05:58:55;;;;;;;17.83;15.85;;;21.80;90.70;;;;;;4995649;28;20068;-82
2023/09/10 06:01:21;;;;;;;16.30;14.48;;;21.80;90.70;;;;;;4995600;28;20026;-82
2023/09/10 06:03:46;;;;;;;17.65;15.60;;;21.80;90.70;;;;;;4995880;28;20033;-82
2023/09/10 06:06:12;;;;;;;19.00;16.00;;;21.80;90.70;;;;;;4977884;28;20027;-82
2023/09/10 06:08:37;;;;;;;19.20;17.15;;;21.90;90.70;;;;;;4995603;28;20035;-82
2023/09/10 06:11:06;;;;;;;17.73;15.75;;;21.90;90.60;;;;;;4978928;28;20109;-84
2023/09/10 06:13:31;;;;;;;17.83;16.02;;;21.90;90.60;;;;;;4996244;28;20057;-82
2023/09/10 06:15:58;;;;;;;18.05;15.63;;;21.90;90.60;;;;;;4996556;28;20464;-82
2023/09/10 06:18:23;;;;;;;17.80;15.90;;;22.00;90.60;;;;;;4995996;28;20081;-82
2023/09/10 06:20:49;;;;;;;20.33;17.02;;;22.00;90.60;;;;;;4995805;28;20022;-82
2023/09/10 06:23:15;;;;;;;18.50;16.45;;;22.00;90.50;;;;;;4975214;28;20089;-82
2023/09/10 06:25:40;;;;;;;19.52;16.63;;;22.00;90.50;;;;;;4976733;28;20027;-82
2023/09/10 06:28:07;;;;;;;17.95;16.10;;;22.10;90.50;;;;;;4986694;28;20054;-81
2023/09/10 06:30:32;;;;;;;19.80;17.58;;;22.10;90.80;;;;;;5005719;28;20027;-82
2023/09/10 06:32:58;;;;;;;18.33;15.90;;;22.20;90.50;;;;;;4990486;28;20023;-82
2023/09/10 06:35:25;;;;;;;20.13;17.58;;;22.20;90.50;;;;;;4989031;28;20027;-81
2023/09/10 06:37:51;;;;;;;19.92;17.42;;;22.20;90.50;;;;;;4989411;28;20023;-82
2023/09/10 06:40:16;;;;;;;18.30;16.23;;;22.20;90.50;;;;;;4988257;28;20027;-82
2023/09/10 06:42:43;;;;;;;18.63;16.63;;;22.30;90.50;;;;;;4985667;28;20031;-81
2023/09/10 06:45:08;;;;;;;18.63;16.73;;;22.30;90.70;;;;;;4976328;28;20088;-82
2023/09/10 06:47:34;;;;;;;16.38;14.57;;;22.40;90.40;;;;;;4976255;28;20499;-82
2023/09/10 06:49:59;;;;;;;18.02;16.15;;;22.50;90.40;;;;;;4975464;28;20046;-83
2023/09/10 06:52:25;;;;;;;18.77;16.73;;;22.50;90.40;;;;;;4975924;28;20037;-81
2023/09/10 06:54:51;;;;;;;19.80;17.67;;;22.50;90.40;;;;;;4975212;28;20101;-82
2023/09/10 06:57:16;;;;;;;16.35;14.60;;;22.50;90.30;;;;;;4975656;28;20070;-82
2023/09/10 06:59:42;;;;;;;21.52;17.60;;;22.50;90.30;;;;;;4973758;28;20472;-82
2023/09/10 07:02:07;;;;;;;19.52;17.23;;;22.60;90.60;;;;;;4975381;28;20035;-82
2023/09/10 07:04:33;;;;;;;17.23;15.45;;;22.60;90.30;;;;;;4989977;28;20532;-82
2023/09/10 07:06:58;;;;;;;18.92;16.80;;;22.70;90.30;;;;;;4973593;28;20023;-82
2023/09/10 07:09:24;;;;;;;22.05;19.30;;;22.70;90.30;;;;;;4973467;28;20126;-82
2023/09/10 07:11:51;;;;;;;20.98;18.75;;;22.80;90.30;;;;;;4975287;28;20378;-82
2023/09/10 07:14:17;;;;;;;20.13;17.13;;;22.80;90.20;;;;;;4974809;28;20496;-82
2023/09/10 07:16:44;;;;;;;24.17;19.55;;;22.80;90.20;;;;;;4974837;28;20050;-82
2023/09/10 07:19:11;;;;;;;20.95;18.52;;;22.90;90.20;;;;;;4975651;28;20118;-82
2023/09/10 07:21:36;;;;;;;21.52;18.52;;;23.00;90.20;;;;;;4974169;28;20027;-82
2023/09/10 07:24:06;;;;;;;20.45;18.33;;;23.00;90.20;;;;;;4989675;28;20523;-83
2023/09/10 07:26:36;;;;;;;21.10;18.42;;;23.00;90.10;;;;;;4974810;28;20488;-81
2023/09/10 07:29:03;;;;;;;22.42;20.02;;;23.10;90.10;;;;;;4974971;28;20039;-82
2023/09/10 07:31:29;;;;;;;21.50;18.20;;;23.10;90.10;;;;;;4975159;28;20027;-82
2023/09/10 07:33:55;;;;;;;21.25;19.15;;;23.20;90.10;;;;;;4974774;28;20114;-81
2023/09/10 07:36:20;;;;;;;23.60;19.38;;;23.30;90.10;;;;;;4973295;28;20511;-82
2023/09/10 07:38:47;;;;;;;24.35;19.73;;;23.30;90.10;;;;;;4972932;28;20034;-82
2023/09/10 07:41:13;;;;;;;20.58;18.55;;;23.30;90.10;;;;;;4974717;28;20027;-83
2023/09/10 07:43:38;;;;;;;21.77;19.50;;;23.40;90.10;;;;;;4989518;28;20042;-84
2023/09/10 07:46:04;;;;;;;24.08;19.80;;;23.50;90.10;;;;;;4974603;28;20037;-83
2023/09/10 07:48:29;;;;;;;22.58;20.33;;;23.50;90.00;;;;;;4974255;28;20042;-83
2023/09/10 07:50:56;;;;;;;21.75;19.55;;;23.50;90.00;;;;;;4974413;28;20274;-82
2023/09/10 07:53:22;;;;;;;22.20;20.00;;;23.60;89.90;;;;;;4958487;28;20401;-82
2023/09/10 07:55:48;;;;;;;24.65;20.02;;;23.60;89.80;;;;;;4969008;28;20029;-82
2023/09/10 07:58:14;;;;;;;22.80;19.95;;;23.70;89.80;;;;;;4953795;29;20110;-81
2023/09/10 08:00:40;;;;;;;23.90;20.80;;;23.70;90.20;;;;;;4953040;29;20445;-82
2023/09/10 08:03:06;;;;;;;22.13;19.83;;;23.70;89.90;;;;;;4954203;29;20046;-82
2023/09/10 08:05:33;;;;;;;23.33;21.02;;;23.80;89.80;;;;;;4955240;29;20034;-83
2023/09/10 08:08:03;;;;;;;21.15;18.95;;;23.90;89.90;;;;;;4954960;29;20023;-83
2023/09/10 08:10:33;;;;;;;23.40;20.90;;;23.90;89.80;;;;;;4969315;28;20077;-83
2023/09/10 08:13:00;;;;;;;23.17;20.65;;;24.00;89.70;;;;;;4969029;28;20057;-82
2023/09/10 08:15:26;;;;;;;23.67;21.25;;;24.00;89.70;;;;;;4954521;29;20034;-84
2023/09/10 08:17:54;;;;;;;24.50;21.58;;;24.00;89.60;;;;;;4954081;28;20394;-83
2023/09/10 08:20:20;;;;;;;23.70;21.02;;;24.10;89.60;;;;;;4969378;28;20412;-81
2023/09/10 08:22:46;;;;;;;24.58;20.35;;;24.20;89.50;;;;;;4959077;28;20051;-83
2023/09/10 08:25:11;;;;;;;23.17;20.80;;;24.20;89.60;;;;;;4973891;28;20470;-83
2023/09/10 08:27:37;;;;;;;23.80;21.30;;;24.30;89.60;;;;;;4973661;28;20093;-83
2023/09/10 08:30:05;;;;;;;22.90;20.50;;;24.30;89.50;;;;;;4973598;28;20129;-84
2023/09/10 08:32:31;;;;;;;23.05;20.67;;;24.40;89.50;;;;;;4973772;28;20093;-82
2023/09/10 08:34:57;;;;;;;24.33;21.73;;;24.50;89.50;;;;;;4973422;28;20085;-82
2023/09/10 08:37:23;;;;;;;25.58;22.95;;;24.50;89.30;;;;;;4956565;28;20058;-84
2023/09/10 08:39:48;;;;;;;23.77;21.15;;;24.60;89.20;;;;;;4973565;28;20054;-85
2023/09/10 08:42:44;;;;;;;24.10;20.92;;;24.60;89.20;;;;;;4973796;28;20027;-83
2023/09/10 08:45:11;;;;;;;23.73;21.23;;;24.70;89.20;;;;;;4973402;28;20376;-82
2023/09/10 08:47:41;;;;;;;25.50;20.00;;;24.70;89.00;;;;;;4956400;28;20027;-83
2023/09/10 08:50:11;;;;;;;22.13;19.83;;;24.80;89.00;;;;;;4972084;28;20038;-82
2023/09/10 08:52:48;;;;;;;22.17;19.83;;;24.90;88.90;;;;;;4955996;28;20049;-86
2023/09/10 08:55:14;;;;;;;22.95;20.17;;;25.00;89.40;;;;;;4973598;28;20027;-83
2023/09/10 08:57:41;;;;;;;21.63;19.35;;;25.00;88.50;;;;;;4973412;28;20038;-83
2023/09/10 09:00:12;;;;;;;23.08;20.70;;;25.10;88.60;;;;;;4956024;28;20555;-82
2023/09/10 09:02:44;;;;;;;20.83;18.60;;;25.10;88.50;;;;;;4973433;28;20121;-82
2023/09/10 09:05:11;;;;;;;20.20;18.02;;;25.30;88.50;;;;;;4956176;28;20543;-83
2023/09/10 09:07:50;;;;;;;20.50;18.00;;;25.30;88.40;;;;;;4955932;28;20026;-82
2023/09/10 09:10:26;;;;;;;21.35;18.35;;;25.40;88.30;;;;;;4973474;28;20038;-82
2023/09/10 09:12:56;;;;;;;18.77;16.80;;;25.40;88.10;;;;;;4973223;28;20199;-83
2023/09/10 09:15:22;;;;;;;22.50;18.98;;;25.50;88.00;;;;;;4973126;28;20481;-82
2023/09/10 09:17:50;;;;;;;21.45;17.63;;;25.60;87.70;;;;;;4955985;28;20130;-83
2023/09/10 09:20:19;;;;;;;21.88;18.65;;;25.60;87.30;;;;;;4973500;28;20062;-82
2023/09/10 09:23:02;;;;;;;18.63;16.25;;;25.70;87.00;;;;;;4973135;28;20576;-82
2023/09/10 09:25:28;;;;;;;18.63;16.60;;;25.80;86.80;;;;;;4973514;28;20027;-83
2023/09/10 09:27:56;;;;;;;19.35;16.95;;;25.90;86.60;;;;;;4956005;28;20081;-82
2023/09/10 09:30:22;;;;;;;19.25;15.15;;;26.00;86.30;;;;;;4959306;28;20050;-86
2023/09/10 09:32:49;;;;;;;19.02;14.75;;;26.10;86.00;;;;;;4959302;28;20030;-83
2023/09/10 09:35:14;;;;;;;17.63;15.50;;;26.10;85.40;;;;;;4976980;28;20034;-85
2023/09/10 09:37:40;;;;;;;17.13;15.30;;;26.20;85.00;;;;;;4977066;28;20031;-84
2023/09/10 09:40:09;;;;;;;16.95;14.13;;;26.20;84.40;;;;;;4959201;28;20118;-84
2023/09/10 09:42:38;;;;;;;15.38;13.73;;;26.30;84.20;;;;;;4976456;28;20037;-85
2023/09/10 09:45:04;;;;;;;18.52;14.82;;;26.30;83.80;;;;;;4959319;28;20078;-83
2023/09/10 09:47:30;;;;;;;15.55;12.68;;;26.50;83.50;;;;;;4958785;28;20027;-83
2023/09/10 09:49:57;;;;;;;18.90;13.27;;;26.50;83.10;;;;;;4976672;28;20038;-85
2023/09/10 09:52:23;;;;;;;14.75;11.70;;;26.60;82.60;;;;;;4959340;28;20568;-84
2023/09/10 09:54:49;;;;;;;17.58;13.63;;;26.60;82.10;;;;;;4976236;28;20030;-82
2023/09/10 09:57:15;;;;;;;16.23;12.43;;;26.70;81.90;;;;;;4976367;28;20054;-82
2023/09/10 09:59:41;;;;;;;15.75;11.88;;;26.80;81.70;;;;;;4976428;28;20030;-85
2023/09/10 10:02:12;;;;;;;17.40;12.88;;;26.80;81.50;;;;;;4976435;28;20082;-83
2023/09/10 10:04:40;;;;;;;14.50;12.40;;;27.00;81.20;;;;;;4976288;28;20065;-85
2023/09/10 10:07:06;;;;;;;17.05;12.07;;;27.10;81.10;;;;;;4959180;28;20041;-84
2023/09/10 10:09:40;;;;;;;14.02;11.23;;;27.30;80.70;;;;;;4975864;28;20039;-83
2023/09/10 10:12:07;;;;;;;14.10;11.23;;;27.50;80.20;;;;;;4976726;28;20027;-86
2023/09/10 10:14:34;;;;;;;12.70;10.07;;;27.60;79.70;;;;;;4976854;28;20037;-85
2023/09/10 10:17:02;;;;;;;15.07;11.32;;;27.80;79.20;;;;;;4975935;28;20489;-83
2023/09/10 10:19:31;;;;;;;14.25;10.25;;;28.00;78.80;;;;;;4976036;28;20034;-86
2023/09/10 10:21:58;;;;;;;12.23;8.45;;;28.20;78.10;;;;;;4958640;28;20019;-83
2023/09/10 10:24:24;;;;;;;13.20;8.82;;;28.40;77.40;;;;;;4975885;28;20150;-82
2023/09/10 10:26:51;;;;;;;10.85;7.78;;;28.60;76.90;;;;;;4975864;28;20023;-85
2023/09/10 10:29:21;;;;;;;11.80;7.70;;;28.70;76.20;;;;;;4975643;28;20043;-83
2023/09/10 10:31:55;;;;;;;18.65;8.75;;;28.90;75.40;;;;;;4990630;28;20023;-83
2023/09/10 10:34:24;;;;;;;;;;;29.10;74.60;;;;;;4959043;28;20022;-85
2023/09/10 10:36:58;;;;;;;13.93;7.18;;;29.30;74.40;;;;;;4975595;28;19906;-84
2023/09/10 10:39:37;;;;;;;9.48;6.85;;;29.50;74.20;;;;;;4958188;28;20552;-83
2023/09/10 10:42:07;;;;;;;10.65;6.82;;;29.70;73.00;;;;;;4975931;28;20027;-86
2023/09/10 10:44:38;;;;;;;11.98;7.47;;;29.90;72.30;;;;;;4976066;28;20034;-86
2023/09/10 10:47:13;;;;;;;11.18;7.15;;;30.10;71.40;;;;;;4975606;28;20030;-84
2023/09/10 10:49:52;;;;;;;9.77;6.65;;;30.30;70.30;;;;;;4959239;28;20058;-84
2023/09/10 10:52:23;;;;;;;12.77;7.30;;;30.50;69.50;;;;;;4976641;28;20050;-85
2023/09/10 10:54:51;;;;;;;8.65;5.82;;;30.80;69.00;;;;;;4958112;28;20050;-83
2023/09/10 10:57:19;;;;;;;9.82;6.60;;;30.90;68.30;;;;;;4958089;28;20412;-84
2023/09/10 10:59:45;;;;;;;9.07;6.28;;;31.10;67.90;;;;;;4975146;28;20097;-84
2023/09/10 11:02:21;;;;;;;13.27;6.13;;;31.30;67.20;;;;;;4957888;28;20042;-85
2023/09/10 11:05:04;;;;;;;11.40;6.53;;;31.50;66.50;;;;;;4975441;28;20038;-87
2023/09/10 11:07:31;;;;;;;10.57;6.28;;;31.70;66.10;;;;;;4975013;28;20027;-84
2023/09/10 11:10:25;;;;;;;11.30;6.40;;;32.00;65.80;;;;;;4957888;28;20405;-85
2023/09/10 11:13:08;;;;;;;9.15;5.82;;;32.20;64.50;;;;;;4974178;28;20022;-84
2023/09/10 11:15:35;;;;;;;13.30;5.63;;;32.50;63.90;;;;;;4957996;28;20507;-83
2023/09/10 11:18:34;;;;;;;9.52;4.85;;;32.70;63.80;;;;;;4974668;28;20038;-85
2023/09/10 11:21:05;;;;;;;11.07;5.72;;;32.90;62.30;;;;;;4974155;28;20034;-85
2023/09/10 11:23:31;;;;;;;8.57;5.28;;;33.20;62.60;;;;;;4957176;28;20054;-84
2023/09/10 11:26:15;;;;;;;7.00;4.72;;;33.30;61.80;;;;;;4974942;28;20114;-86
2023/09/10 11:28:52;;;;;;;8.15;4.82;;;33.50;60.70;;;;;;4973213;28;20070;-87
2023/09/10 11:31:33;;;;;;;8.93;4.85;;;33.70;60.50;;;;;;4974589;28;20037;-84
2023/09/10 11:34:17;;;;;;;7.75;5.15;;;33.90;59.90;;;;;;4973106;28;20042;-84
2023/09/10 11:37:00;;;;;;;10.32;4.80;;;34.20;59.60;;;;;;4974378;28;20027;-84
2023/09/10 11:39:26;;;;;;;;;;;34.30;59.20;;;;;;4974802;28;20029;-85
2023/09/10 11:41:53;;;;;;;9.05;4.75;;;34.50;59.50;;;;;;4974388;28;20000;-84
2023/09/10 11:44:19;;;;;;;9.15;4.25;;;34.80;59.60;;;;;;4974047;28;20489;-85
2023/09/10 11:46:45;;;;;;;7.43;4.88;;;34.90;58.90;;;;;;4974508;28;20066;-84
2023/09/10 11:49:11;;;;;;;7.47;4.43;;;35.10;58.00;;;;;;4974191;28;20129;-85
2023/09/10 11:51:45;;;;;;;9.43;4.82;;;35.40;57.50;;;;;;4973654;28;20137;-83
2023/09/10 11:54:16;;;;;;;7.53;4.32;;;35.60;57.00;;;;;;4974293;28;20038;-86
2023/09/10 11:56:46;;;;;;;9.68;5.68;;;35.80;56.70;;;;;;4974256;28;20106;-87
2023/09/10 11:59:23;;;;;;;9.98;4.15;;;35.90;56.20;;;;;;4972838;28;20077;-86
2023/09/10 12:01:50;;;;;;;10.77;4.97;;;36.10;55.60;;;;;;4974093;28;20025;-85
2023/09/10 12:04:16;;;;;;;7.88;4.55;;;36.30;55.40;;;;;;4973902;28;20022;-85
2023/09/10 12:06:43;;;;;;;7.28;4.53;;;36.50;54.90;;;;;;4973693;28;20026;-86
2023/09/10 12:09:08;;;;;;;9.60;4.38;;;36.60;54.50;;;;;;4974072;28;20090;-83
2023/09/10 12:11:36;;;;;;;7.50;4.53;;;36.80;54.20;;;;;;4990737;28;20026;-86
2023/09/10 12:14:02;;;;;;;6.45;4.07;;;37.00;53.80;;;;;;4975461;28;20072;-82
2023/09/10 12:16:28;;;;;;;5.88;4.03;;;37.10;53.40;;;;;;4993812;28;20371;-82
2023/09/10 12:18:54;;;;;;;10.98;4.30;;;37.20;53.10;;;;;;4993213;28;20088;-82
2023/09/10 12:21:19;;;;;;;6.00;4.15;;;37.30;52.70;;;;;;4993014;28;20080;-83
2023/09/10 12:23:46;;;;;;;7.20;3.60;;;37.50;52.40;;;;;;4993004;28;20050;-84
2023/09/10 12:26:12;;;;;;;8.40;3.65;;;37.60;51.90;;;;;;4993163;28;20023;-82
2023/09/10 12:28:38;;;;;;;5.85;3.25;;;37.80;51.60;;;;;;4993062;28;20035;-83
2023/09/10 12:31:04;;;;;;;8.68;4.00;;;38.00;51.20;;;;;;4992728;28;20026;-83
2023/09/10 12:33:31;;;;;;;8.80;4.28;;;38.10;51.10;;;;;;4983255;28;20471;-82